createdAt,value
2022-10-23T00:00:26.277Z,98503.25
2022-10-23T00:01:29.125Z,98505.63
2022-10-23T00:02:30.474Z,98507.97
2022-10-23T00:03:31.778Z,98498.88
2022-10-23T00:04:33.115Z,98493.56
2022-10-23T00:05:34.416Z,98494.97
2022-10-23T00:06:35.906Z,98494.22
2022-10-23T00:07:37.270Z,98490.13
2022-10-23T00:08:39.196Z,98490.44
2022-10-23T00:09:40.504Z,98487.31
2022-10-23T00:10:42.803Z,98485.75
2022-10-23T00:11:44.277Z,98481.19
2022-10-23T00:12:46.365Z,98486.69
2022-10-23T00:13:47.712Z,98482.78
2022-10-23T00:14:49.053Z,98474.81
2022-10-23T00:16:56.618Z,98475.75
2022-10-23T00:18:01.031Z,98474.50
2022-10-23T00:19:02.803Z,98474.31
2022-10-23T00:20:05.185Z,98477.63
2022-10-23T00:21:10.211Z,98480.13
2022-10-23T00:22:11.559Z,98479.66
2022-10-23T00:23:12.840Z,98473.09
2022-10-23T00:24:14.274Z,98481.56
2022-10-23T00:25:15.563Z,98479.50
2022-10-23T00:26:17.290Z,98473.72
2022-10-23T00:27:18.684Z,98477.00
2022-10-23T00:28:20.093Z,98479.97
2022-10-23T00:29:21.388Z,98484.03
2022-10-23T00:30:22.704Z,98488.13
2022-10-23T00:31:24.985Z,98493.72
2022-10-23T00:32:27.146Z,98489.97
2022-10-23T00:33:28.840Z,98489.19
2022-10-23T00:34:30.125Z,98485.75
2022-10-23T00:35:31.507Z,98488.41
2022-10-23T00:36:32.888Z,98487.63
2022-10-23T00:37:34.270Z,98492.16
2022-10-23T00:38:36.246Z,98486.06
2022-10-23T00:39:37.584Z,98481.53
2022-10-23T00:40:39.749Z,98483.41
2022-10-23T00:41:41.100Z,98479.97
2022-10-23T00:42:42.737Z,98484.50
2022-10-23T00:43:56.311Z,98488.88
2022-10-23T00:45:12.377Z,98480.75
2022-10-23T00:46:13.723Z,98485.59
2022-10-23T00:47:15.346Z,98481.66
2022-10-23T00:48:17.248Z,98483.88
2022-10-23T00:49:18.569Z,98485.25
2022-10-23T00:50:21.359Z,98489.00
2022-10-23T00:51:23.080Z,98480.25
2022-10-23T00:52:24.511Z,98484.81
2022-10-23T00:53:25.813Z,98482.16
2022-10-23T00:54:29.252Z,98476.81
2022-10-23T00:55:32.115Z,98479.16
2022-10-23T00:56:36.771Z,98477.59
2022-10-23T00:57:40.980Z,98465.72
2022-10-23T00:58:42.255Z,98468.84
2022-10-23T00:59:43.636Z,98476.50
2022-10-23T01:00:46.743Z,98470.41
2022-10-23T01:01:48.166Z,98467.75
2022-10-23T01:02:50.147Z,98475.41
2022-10-23T01:03:51.813Z,98466.38
2022-10-23T01:04:53.165Z,98470.88
2022-10-23T01:06:05.040Z,98467.75
2022-10-23T01:07:08.995Z,98463.72
2022-10-23T01:08:16.840Z,98463.72
2022-10-23T01:09:21.191Z,98463.72
2022-10-23T01:10:37.480Z,98459.47
2022-10-23T01:11:42.123Z,98462.91
2022-10-23T01:13:09.523Z,98465.44
2022-10-23T01:14:15.548Z,98466.50
2022-10-23T01:15:45.991Z,98464.50
2022-10-23T01:16:59.191Z,98461.34
2022-10-23T01:18:03.707Z,98463.72
2022-10-23T01:19:14.831Z,98457.91
2022-10-23T01:20:28.183Z,98457.44
2022-10-23T01:21:35.596Z,98458.22
2022-10-23T01:22:44.736Z,98445.72
2022-10-23T01:24:06.643Z,98451.94
2022-10-23T01:25:13.930Z,98460.88
2022-10-23T01:26:27.310Z,98452.44
2022-10-23T01:27:34.656Z,98450.38
2022-10-23T01:28:43.002Z,98445.72
2022-10-23T01:29:48.267Z,98448.69
2022-10-23T01:30:49.756Z,98443.19
2022-10-23T01:31:51.751Z,98438.66
2022-10-23T01:33:06.637Z,98451.94
2022-10-23T01:34:15.112Z,98446.16
2022-10-23T01:35:27.697Z,98440.84
2022-10-23T01:36:34.489Z,98442.25
2022-10-23T01:37:42.814Z,98424.44
2022-10-23T01:39:07.114Z,98427.09
2022-10-23T01:40:13.290Z,98430.53
2022-10-23T01:41:17.284Z,98436.59
2022-10-23T01:42:29.445Z,98427.41
2022-10-23T01:43:34.468Z,98429.28
2022-10-23T01:44:39.428Z,98431.63
2022-10-23T01:45:43.290Z,98430.38
2022-10-23T01:46:50.106Z,98432.56
2022-10-23T01:47:53.193Z,98429.31
2022-10-23T01:48:55.214Z,98433.06
2022-10-23T01:49:57.517Z,98430.56
2022-10-23T01:51:00.613Z,98427.59
2022-10-23T01:52:03.599Z,98428.84
2022-10-23T01:53:05.100Z,98431.97
2022-10-23T01:54:09.044Z,98420.88
2022-10-23T01:55:12.421Z,98427.75
2022-10-23T01:56:17.569Z,98426.97
2022-10-23T01:57:20.676Z,98431.81
2022-10-23T01:58:22.745Z,98442.31
2022-10-23T01:59:31.055Z,98431.97
2022-10-23T02:00:33.173Z,98433.56
2022-10-23T02:01:35.290Z,98438.38
2022-10-23T02:02:37.614Z,98438.69
2022-10-23T02:03:40.976Z,98438.22
2022-10-23T02:04:46.263Z,98439.00
2022-10-23T02:05:47.580Z,98427.91
2022-10-23T02:06:49.272Z,98433.22
2022-10-23T02:07:51.171Z,98432.91
2022-10-23T02:08:52.485Z,98421.50
2022-10-23T02:09:53.911Z,98429.47
2022-10-23T02:11:04.314Z,98424.16
2022-10-23T02:12:07.689Z,98427.91
2022-10-23T02:13:12.603Z,98422.44
2022-10-23T02:14:13.924Z,98420.06
2022-10-23T02:15:18.144Z,98416.63
2022-10-23T02:16:28.556Z,98416.94
2022-10-23T02:17:36.187Z,98405.84
2022-10-23T02:18:46.154Z,98402.72
2022-10-23T02:19:54.464Z,98410.53
2022-10-23T02:21:05.094Z,98407.69
2022-10-23T02:22:12.207Z,98409.13
2022-10-23T02:23:28.726Z,98405.97
2022-10-23T02:24:32.739Z,98399.41
2022-10-23T02:25:48.815Z,98400.81
2022-10-23T02:26:55.592Z,98399.56
2022-10-23T02:27:58.236Z,98400.34
2022-10-23T02:29:08.345Z,98395.03
2022-10-23T02:30:13.092Z,98393.78
2022-10-23T02:31:17.277Z,98395.19
2022-10-23T02:32:20.426Z,98397.06
2022-10-23T02:33:23.534Z,98400.50
2022-10-23T02:34:24.972Z,98403.16
2022-10-23T02:35:26.285Z,98401.88
2022-10-23T02:36:36.948Z,98393.91
2022-10-23T02:37:38.890Z,98394.56
2022-10-23T02:38:42.209Z,98401.75
2022-10-23T02:39:43.649Z,98395.94
2022-10-23T02:40:46.392Z,98399.69
2022-10-23T02:41:51.385Z,98401.09
2022-10-23T02:43:05.586Z,98403.28
2022-10-23T02:44:19.036Z,98397.97
2022-10-23T02:45:23.348Z,98397.97
2022-10-23T02:46:27.993Z,98390.00
2022-10-23T02:47:39.930Z,98390.47
2022-10-23T02:49:01.685Z,98382.81
2022-10-23T02:50:04.395Z,98384.56
2022-10-23T02:51:07.538Z,98383.78
2022-10-23T02:52:19.939Z,98376.59
2022-10-23T02:53:24.073Z,98373.75
2022-10-23T02:54:25.355Z,98370.34
2022-10-23T02:55:34.615Z,98377.19
2022-10-23T02:56:48.260Z,98380.34
2022-10-23T02:57:52.787Z,98380.66
2022-10-23T02:58:54.105Z,98375.03
2022-10-23T03:00:03.929Z,98377.69
2022-10-23T03:01:07.997Z,98377.22
2022-10-23T03:02:18.909Z,98369.25
2022-10-23T03:03:24.310Z,98375.34
2022-10-23T03:04:27.877Z,98370.03
2022-10-23T03:05:31.375Z,98375.34
2022-10-23T03:06:32.988Z,98379.88
2022-10-23T03:07:34.387Z,98375.03
2022-10-23T03:08:41.394Z,98369.09
2022-10-23T03:09:42.694Z,98375.97
2022-10-23T03:10:44.096Z,98365.34
2022-10-23T03:11:45.506Z,98369.72
2022-10-23T03:12:47.288Z,98364.41
2022-10-23T03:13:48.677Z,98366.00
2022-10-23T03:14:50.048Z,98356.94
2022-10-23T03:15:51.386Z,98364.91
2022-10-23T03:16:52.671Z,98364.91
2022-10-23T03:17:53.978Z,98359.59
2022-10-23T03:18:56.241Z,98361.13
2022-10-23T03:19:58.067Z,98369.09
2022-10-23T03:20:59.394Z,98370.22
2022-10-23T03:22:00.710Z,98365.69
2022-10-23T03:23:02.019Z,98359.09
2022-10-23T03:24:03.504Z,98363.63
2022-10-23T03:25:11.077Z,98358.81
2022-10-23T03:26:12.421Z,98365.50
2022-10-23T03:27:17.148Z,98363.34
2022-10-23T03:28:18.480Z,98361.75
2022-10-23T03:29:19.874Z,98363.63
2022-10-23T03:30:21.581Z,98365.84
2022-10-23T03:31:27.663Z,98361.28
2022-10-23T03:32:32.390Z,98351.78
2022-10-23T03:33:34.626Z,98357.09
2022-10-23T03:34:44.436Z,98357.53
2022-10-23T03:35:45.719Z,98351.78
2022-10-23T03:36:48.460Z,98352.88
2022-10-23T03:37:49.792Z,98352.38
2022-10-23T03:38:51.354Z,98356.13
2022-10-23T03:39:52.686Z,98355.34
2022-10-23T03:40:54.006Z,98355.03
2022-10-23T03:41:55.332Z,98350.22
2022-10-23T03:42:56.643Z,98353.16
2022-10-23T03:43:58.930Z,98348.94
2022-10-23T03:45:00.286Z,98354.59
2022-10-23T03:46:01.595Z,98349.28
2022-10-23T03:47:02.950Z,98355.69
2022-10-23T03:48:04.910Z,98350.66
2022-10-23T03:49:08.418Z,98351.44
2022-10-23T03:50:10.233Z,98353.81
2022-10-23T03:51:12.213Z,98346.13
2022-10-23T03:52:15.377Z,98353.31
2022-10-23T03:53:16.912Z,98348.31
2022-10-23T03:54:25.307Z,98345.19
2022-10-23T03:55:26.636Z,98350.50
2022-10-23T03:56:28.006Z,98347.06
2022-10-23T03:57:29.332Z,98349.25
2022-10-23T03:58:30.713Z,98344.56
2022-10-23T03:59:32.103Z,98345.66
2022-10-23T04:00:34.197Z,98348.91
2022-10-23T04:01:35.976Z,98349.25
2022-10-23T04:02:37.388Z,98342.69
2022-10-23T04:03:38.779Z,98344.09
2022-10-23T04:04:40.585Z,98352.03
2022-10-23T04:05:42.547Z,98346.41
2022-10-23T04:06:44.089Z,98355.78
2022-10-23T04:07:45.699Z,98351.88
2022-10-23T04:08:47.040Z,98354.53
2022-10-23T04:09:50.621Z,98363.91
2022-10-23T04:10:51.968Z,98364.69
2022-10-23T04:11:58.424Z,98363.41
2022-10-23T04:13:02.353Z,98362.63
2022-10-23T04:14:11.738Z,98358.75
2022-10-23T04:15:13.110Z,98362.97
2022-10-23T04:16:17.099Z,98357.34
2022-10-23T04:17:19.563Z,98357.81
2022-10-23T04:18:23.807Z,98361.56
2022-10-23T04:19:25.193Z,98358.09
2022-10-23T04:20:29.985Z,98353.28
2022-10-23T04:21:35.708Z,98357.03
2022-10-23T04:22:36.988Z,98346.72
2022-10-23T04:23:38.298Z,98350.31
2022-10-23T04:24:41.035Z,98347.97
2022-10-23T04:25:42.411Z,98353.63
2022-10-23T04:26:43.811Z,98346.44
2022-10-23T04:27:45.981Z,98345.66
2022-10-23T04:28:48.039Z,98357.34
2022-10-23T04:29:51.027Z,98348.59
2022-10-23T04:30:54.083Z,98349.38
2022-10-23T04:31:55.443Z,98358.09
2022-10-23T04:32:56.759Z,98352.34
2022-10-23T04:33:58.123Z,98361.25
2022-10-23T04:35:04.837Z,98360.31
2022-10-23T04:36:06.463Z,98358.00
2022-10-23T04:37:07.743Z,98356.56
2022-10-23T04:38:09.062Z,98350.16
2022-10-23T04:39:10.854Z,98348.16
2022-10-23T04:40:12.347Z,98349.06
2022-10-23T04:41:13.884Z,98355.97
2022-10-23T04:42:15.263Z,98343.75
2022-10-23T04:43:16.623Z,98350.66
2022-10-23T04:44:17.924Z,98348.78
2022-10-23T04:45:19.256Z,98345.34
2022-10-23T04:46:20.646Z,98351.44
2022-10-23T04:47:23.239Z,98348.78
2022-10-23T04:48:33.022Z,98350.03
2022-10-23T04:49:58.924Z,98353.63
2022-10-23T04:51:18.933Z,98353.31
2022-10-23T04:52:34.070Z,98352.88
2022-10-23T04:53:58.389Z,98356.28
2022-10-23T04:55:09.959Z,98347.56
2022-10-23T04:56:19.120Z,98353.63
2022-10-23T04:57:24.750Z,98349.28
2022-10-23T04:58:38.089Z,98347.72
2022-10-23T04:59:39.400Z,98350.38
2022-10-23T05:00:40.758Z,98351.94
2022-10-23T05:01:42.750Z,98350.81
2022-10-23T05:02:44.690Z,98350.81
2022-10-23T05:03:48.632Z,98345.97
2022-10-23T05:04:50.741Z,98348.63
2022-10-23T05:06:07.467Z,98348.34
2022-10-23T05:07:31.681Z,98351.13
2022-10-23T05:08:43.609Z,98345.81
2022-10-23T05:09:54.271Z,98348.19
2022-10-23T05:11:00.819Z,98350.34
2022-10-23T05:12:02.195Z,98340.50
2022-10-23T05:13:04.122Z,98342.72
2022-10-23T05:14:05.496Z,98344.59
2022-10-23T05:15:07.062Z,98349.28
2022-10-23T05:16:08.586Z,98346.13
2022-10-23T05:17:15.620Z,98343.50
2022-10-23T05:18:20.204Z,98343.50
2022-10-23T05:19:24.438Z,98340.06
2022-10-23T05:20:28.645Z,98341.16
2022-10-23T05:21:31.127Z,98332.69
2022-10-23T05:22:36.030Z,98335.19
2022-10-23T05:23:40.913Z,98337.06
2022-10-23T05:24:44.846Z,98337.72
2022-10-23T05:25:48.272Z,98335.84
2022-10-23T05:26:52.131Z,98335.06
2022-10-23T05:27:54.945Z,98331.63
2022-10-23T05:28:56.561Z,98324.44
2022-10-23T05:29:57.873Z,98327.88
2022-10-23T05:31:03.627Z,98330.53
2022-10-23T05:32:06.547Z,98329.88
2022-10-23T05:33:08.650Z,98318.34
2022-10-23T05:34:15.012Z,98323.03
2022-10-23T05:35:21.422Z,98326.16
2022-10-23T05:36:25.053Z,98320.84
2022-10-23T05:37:30.984Z,98325.53
2022-10-23T05:38:46.179Z,98328.34
2022-10-23T05:39:53.364Z,98329.28
2022-10-23T05:40:55.676Z,98327.56
2022-10-23T05:41:57.892Z,98327.56
2022-10-23T05:43:00.003Z,98323.16
2022-10-23T05:44:15.825Z,98326.31
2022-10-23T05:45:44.831Z,98335.81
2022-10-23T05:47:04.697Z,98330.06
2022-10-23T05:48:34.599Z,98321.31
2022-10-23T05:49:59.553Z,98325.81
2022-10-23T05:51:21.400Z,98317.38
2022-10-23T05:52:41.607Z,98317.22
2022-10-23T05:54:00.231Z,98314.13
2022-10-23T05:55:07.114Z,98317.09
2022-10-23T05:56:21.948Z,98315.50
2022-10-23T05:57:55.423Z,98307.88
2022-10-23T05:59:17.890Z,98312.41
2022-10-23T06:00:40.443Z,98301.78
2022-10-23T06:02:01.822Z,98305.22
2022-10-23T06:03:18.403Z,98290.84
2022-10-23T06:04:19.767Z,98299.56
2022-10-23T06:05:50.638Z,98304.28
2022-10-23T06:06:55.360Z,98301.44
2022-10-23T06:07:58.149Z,98300.06
2022-10-23T06:09:00.036Z,98294.75
2022-10-23T06:10:01.521Z,98297.09
2022-10-23T06:11:07.113Z,98309.25
2022-10-23T06:12:08.548Z,98298.63
2022-10-23T06:13:09.997Z,98299.41
2022-10-23T06:14:11.572Z,98300.22
2022-10-23T06:15:13.380Z,98297.69
2022-10-23T06:16:31.810Z,98296.91
2022-10-23T06:17:33.243Z,98300.84
2022-10-23T06:18:34.764Z,98309.25
2022-10-23T06:19:43.777Z,98303.66
2022-10-23T06:20:45.237Z,98303.19
2022-10-23T06:21:54.778Z,98302.25
2022-10-23T06:23:03.758Z,98301.91
2022-10-23T06:24:31.488Z,98300.81
2022-10-23T06:25:36.979Z,98292.84
2022-10-23T06:26:39.090Z,98294.41
2022-10-23T06:27:52.932Z,98295.22
2022-10-23T06:28:54.343Z,98297.53
2022-10-23T06:29:55.691Z,98292.22
2022-10-23T06:30:57.008Z,98289.56
2022-10-23T06:31:58.414Z,98299.88
2022-10-23T06:33:03.218Z,98299.56
2022-10-23T06:34:07.295Z,98301.44
2022-10-23T06:35:08.776Z,98297.69
2022-10-23T06:36:10.289Z,98295.03
2022-10-23T06:37:13.939Z,98304.25
2022-10-23T06:38:30.351Z,98299.09
2022-10-23T06:39:32.353Z,98297.81
2022-10-23T06:40:43.699Z,98290.75
2022-10-23T06:41:46.767Z,98291.69
2022-10-23T06:43:08.060Z,98299.34
2022-10-23T06:44:29.103Z,98294.50
2022-10-23T06:45:34.630Z,98300.28
2022-10-23T06:47:08.255Z,98304.97
2022-10-23T06:48:21.666Z,98302.75
2022-10-23T06:49:35.276Z,98294.00
2022-10-23T06:50:38.111Z,98294.78
2022-10-23T06:51:44.876Z,98293.69
2022-10-23T06:52:48.145Z,98286.97
2022-10-23T06:53:52.124Z,98293.50
2022-10-23T06:55:13.391Z,98294.75
2022-10-23T06:56:15.562Z,98289.56
2022-10-23T06:57:16.967Z,98294.59
2022-10-23T06:58:20.767Z,98292.69
2022-10-23T06:59:35.254Z,98292.06
2022-10-23T07:00:38.133Z,98289.84
2022-10-23T07:01:40.836Z,98287.97
2022-10-23T07:02:43.894Z,98281.56
2022-10-23T07:03:45.340Z,98284.69
2022-10-23T07:04:47.421Z,98281.69
2022-10-23T07:05:53.848Z,98279.81
2022-10-23T07:06:58.268Z,98275.56
2022-10-23T07:08:05.858Z,98282.09
2022-10-23T07:09:13.262Z,98282.59
2022-10-23T07:10:27.231Z,98284.47
2022-10-23T07:11:32.265Z,98281.00
2022-10-23T07:12:33.595Z,98291.66
2022-10-23T07:13:54.887Z,98284.47
2022-10-23T07:14:56.300Z,98283.38
2022-10-23T07:15:57.658Z,98289.13
2022-10-23T07:17:00.313Z,98282.41
2022-10-23T07:18:03.230Z,98285.97
2022-10-23T07:19:16.648Z,98283.00
2022-10-23T07:20:30.033Z,98276.38
2022-10-23T07:21:32.435Z,98278.72
2022-10-23T07:22:51.712Z,98286.06
2022-10-23T07:23:59.128Z,98285.72
2022-10-23T07:25:00.491Z,98282.75
2022-10-23T07:26:09.604Z,98291.19
2022-10-23T07:27:11.350Z,98293.22
2022-10-23T07:28:12.734Z,98288.81
2022-10-23T07:29:14.339Z,98287.38
2022-10-23T07:30:16.897Z,98292.69
2022-10-23T07:31:25.765Z,98291.28
2022-10-23T07:32:55.050Z,98283.56
2022-10-23T07:34:02.289Z,98287.75
2022-10-23T07:35:04.395Z,98286.66
2022-10-23T07:36:09.017Z,98294.78
2022-10-23T07:37:10.548Z,98284.47
2022-10-23T07:38:11.899Z,98289.94
2022-10-23T07:39:16.347Z,98293.03
2022-10-23T07:40:26.029Z,98292.06
2022-10-23T07:41:30.889Z,98293.63
2022-10-23T07:42:32.243Z,98289.19
2022-10-23T07:43:33.598Z,98292.03
2022-10-23T07:44:35.025Z,98292.47
2022-10-23T07:45:36.512Z,98297.94
2022-10-23T07:46:46.112Z,98307.47
2022-10-23T07:47:51.652Z,98300.41
2022-10-23T07:48:54.494Z,98305.09
2022-10-23T07:49:56.419Z,98308.97
2022-10-23T07:50:58.361Z,98304.56
2022-10-23T07:51:59.737Z,98299.22
2022-10-23T07:53:35.174Z,98300.13
2022-10-23T07:54:44.045Z,98308.69
2022-10-23T07:56:01.012Z,98301.94
2022-10-23T07:57:20.437Z,98310.53
2022-10-23T07:58:30.488Z,98299.97
2022-10-23T07:59:46.894Z,98305.44
2022-10-23T08:00:57.584Z,98312.78
2022-10-23T08:02:04.925Z,98309.00
2022-10-23T08:03:21.770Z,98309.91
2022-10-23T08:04:37.322Z,98312.38
2022-10-23T08:05:55.200Z,98313.72
2022-10-23T08:06:57.479Z,98306.16
2022-10-23T08:08:00.405Z,98301.41
2022-10-23T08:09:05.364Z,98309.84
2022-10-23T08:10:09.674Z,98302.28
2022-10-23T08:11:14.005Z,98304.63
2022-10-23T08:12:23.687Z,98295.19
2022-10-23T08:13:24.992Z,98294.06
2022-10-23T08:14:48.718Z,98280.84
2022-10-23T08:15:50.772Z,98286.31
2022-10-23T08:17:10.813Z,98285.53
2022-10-23T08:18:36.871Z,98285.66
2022-10-23T08:19:38.362Z,98289.53
2022-10-23T08:20:40.322Z,98295.00
2022-10-23T08:22:23.134Z,98288.66
2022-10-23T08:23:25.044Z,98286.91
2022-10-23T08:24:39.011Z,98282.34
2022-10-23T08:25:43.647Z,98282.00
2022-10-23T08:26:45.268Z,98282.44
2022-10-23T08:27:50.369Z,98275.78
2022-10-23T08:28:52.964Z,98271.22
2022-10-23T08:29:54.355Z,98272.91
2022-10-23T08:30:55.840Z,98271.00
2022-10-23T08:31:57.158Z,98269.44
2022-10-23T08:33:05.577Z,98268.75
2022-10-23T08:34:07.592Z,98263.53
2022-10-23T08:35:09.162Z,98267.88
2022-10-23T08:36:22.665Z,98261.53
2022-10-23T08:37:24.220Z,98263.44
2022-10-23T08:38:25.642Z,98261.19
2022-10-23T08:39:27.025Z,98255.84
2022-10-23T08:40:46.140Z,98259.78
2022-10-23T08:41:59.536Z,98267.56
2022-10-23T08:43:05.354Z,98254.53
2022-10-23T08:44:15.608Z,98256.13
2022-10-23T08:45:26.545Z,98258.44
2022-10-23T08:46:40.002Z,98252.09
2022-10-23T08:48:06.489Z,98257.09
2022-10-23T08:49:54.169Z,98251.41
2022-10-23T08:50:58.156Z,98256.19
2022-10-23T08:52:02.193Z,98254.50
2022-10-23T08:53:09.450Z,98251.50
2022-10-23T08:54:20.316Z,98252.38
2022-10-23T08:55:29.776Z,98253.16
2022-10-23T08:56:41.935Z,98246.25
2022-10-23T08:57:47.429Z,98243.00
2022-10-23T08:58:53.881Z,98240.44
2022-10-23T08:59:58.741Z,98242.00
2022-10-23T09:01:00.238Z,98243.66
2022-10-23T09:02:08.008Z,98247.41
2022-10-23T09:03:11.335Z,98245.97
2022-10-23T09:04:13.797Z,98245.22
2022-10-23T09:05:17.923Z,98254.09
2022-10-23T09:06:31.065Z,98250.66
2022-10-23T09:07:35.100Z,98248.75
2022-10-23T09:08:39.412Z,98249.97
2022-10-23T09:09:40.687Z,98250.06
2022-10-23T09:10:41.972Z,98250.16
2022-10-23T09:11:49.353Z,98256.28
2022-10-23T09:12:50.873Z,98258.72
2022-10-23T09:13:52.127Z,98256.16
2022-10-23T09:14:53.434Z,98256.22
2022-10-23T09:16:13.243Z,98253.75
2022-10-23T09:17:25.808Z,98253.06
2022-10-23T09:18:27.127Z,98252.59
2022-10-23T09:19:29.923Z,98245.41
2022-10-23T09:20:35.287Z,98243.25
2022-10-23T09:21:36.624Z,98245.25
2022-10-23T09:22:38.639Z,98240.69
2022-10-23T09:23:39.931Z,98255.19
2022-10-23T09:24:44.260Z,98254.41
2022-10-23T09:25:46.949Z,98256.72
2022-10-23T09:26:49.200Z,98254.06
2022-10-23T09:27:54.763Z,98255.81
2022-10-23T09:29:15.018Z,98256.56
2022-10-23T09:30:45.337Z,98255.56
2022-10-23T09:31:54.411Z,98258.88
2022-10-23T09:32:55.870Z,98247.81
2022-10-23T09:34:01.286Z,98249.56
2022-10-23T09:35:03.194Z,98253.78
2022-10-23T09:36:04.572Z,98242.81
2022-10-23T09:37:24.071Z,98239.88
2022-10-23T09:38:27.016Z,98235.75
2022-10-23T09:39:35.116Z,98232.28
2022-10-23T09:40:40.348Z,98226.94
2022-10-23T09:41:42.900Z,98228.50
2022-10-23T09:42:56.150Z,98227.78
2022-10-23T09:44:01.681Z,98225.88
2022-10-23T09:45:03.212Z,98223.03
2022-10-23T09:46:05.727Z,98220.78
2022-10-23T09:47:09.902Z,98223.47
2022-10-23T09:48:12.680Z,98227.34
2022-10-23T09:49:16.994Z,98218.25
2022-10-23T09:50:20.419Z,98223.25
2022-10-23T09:51:21.766Z,98219.47
2022-10-23T09:52:25.508Z,98223.00
2022-10-23T09:53:31.750Z,98216.19
2022-10-23T09:54:53.323Z,98218.22
2022-10-23T09:55:55.540Z,98203.78
2022-10-23T09:56:58.550Z,98201.88
2022-10-23T09:57:59.865Z,98204.28
2022-10-23T09:59:13.499Z,98192.97
2022-10-23T10:00:14.955Z,98203.31
2022-10-23T10:01:22.502Z,98194.91
2022-10-23T10:02:29.410Z,98198.53
2022-10-23T10:03:51.978Z,98197.13
2022-10-23T10:04:57.822Z,98201.78
2022-10-23T10:06:01.203Z,98201.44
2022-10-23T10:07:04.032Z,98193.81
2022-10-23T10:08:20.396Z,98201.25
2022-10-23T10:09:21.847Z,98214.72
2022-10-23T10:10:23.400Z,98207.53
2022-10-23T10:11:43.223Z,98210.25
2022-10-23T10:12:53.342Z,98228.91
2022-10-23T10:14:06.064Z,98226.69
2022-10-23T10:15:16.239Z,98228.81
2022-10-23T10:16:41.576Z,98231.13
2022-10-23T10:17:52.063Z,98231.56
2022-10-23T10:18:53.368Z,98226.75
2022-10-23T10:20:14.445Z,98234.06
2022-10-23T10:21:22.868Z,98218.13
2022-10-23T10:22:35.240Z,98212.00
2022-10-23T10:23:40.048Z,98212.78
2022-10-23T10:24:46.669Z,98204.41
2022-10-23T10:25:57.158Z,98209.03
2022-10-23T10:27:05.927Z,98209.47
2022-10-23T10:28:15.204Z,98209.09
2022-10-23T10:29:45.608Z,98206.84
2022-10-23T10:30:59.339Z,98205.75
2022-10-23T10:32:00.653Z,98212.72
2022-10-23T10:33:09.269Z,98203.97
2022-10-23T10:34:32.632Z,98210.59
2022-10-23T10:35:33.915Z,98207.59
2022-10-23T10:36:54.034Z,98201.16
2022-10-23T10:38:25.259Z,98196.28
2022-10-23T10:39:32.636Z,98197.16
2022-10-23T10:40:59.542Z,98192.25
2022-10-23T10:42:21.170Z,98200.00
2022-10-23T10:43:28.482Z,98185.13
2022-10-23T10:44:48.583Z,98181.34
2022-10-23T10:45:57.067Z,98179.19
2022-10-23T10:47:21.188Z,98171.25
2022-10-23T10:48:27.044Z,98169.81
2022-10-23T10:50:14.879Z,98155.75
2022-10-23T10:51:37.529Z,98153.13
2022-10-23T10:52:38.918Z,98151.22
2022-10-23T10:53:47.170Z,98140.06
2022-10-23T10:54:54.365Z,98150.41
2022-10-23T10:55:57.535Z,98147.31
2022-10-23T10:57:00.193Z,98143.91
2022-10-23T10:58:20.151Z,98152.34
2022-10-23T10:59:28.113Z,98155.88
2022-10-23T11:00:31.066Z,98170.06
2022-10-23T11:01:51.631Z,98163.97
2022-10-23T11:03:02.287Z,98176.72
2022-10-23T11:04:03.887Z,98173.66
2022-10-23T11:05:07.993Z,98171.75
2022-10-23T11:06:13.102Z,98174.13
2022-10-23T11:07:17.139Z,98173.75
2022-10-23T11:08:20.437Z,98164.97
2022-10-23T11:09:25.011Z,98163.84
2022-10-23T11:10:26.818Z,98168.13
2022-10-23T11:11:31.939Z,98172.78
2022-10-23T11:12:33.284Z,98180.13
2022-10-23T11:13:34.655Z,98172.50
2022-10-23T11:14:35.997Z,98168.28
2022-10-23T11:15:40.675Z,98163.31
2022-10-23T11:16:45.295Z,98158.28
2022-10-23T11:18:09.632Z,98156.03
2022-10-23T11:19:17.847Z,98152.94
2022-10-23T11:20:27.576Z,98150.69
2022-10-23T11:21:38.313Z,98153.00
2022-10-23T11:22:42.903Z,98151.84
2022-10-23T11:24:03.512Z,98153.03
2022-10-23T11:25:20.168Z,98142.66
2022-10-23T11:26:24.676Z,98133.81
2022-10-23T11:27:29.109Z,98138.03
2022-10-23T11:28:48.643Z,98127.72
2022-10-23T11:30:08.674Z,98126.56
2022-10-23T11:31:12.112Z,98133.88
2022-10-23T11:32:28.778Z,98123.13
2022-10-23T11:33:44.019Z,98119.69
2022-10-23T11:34:46.122Z,98106.63
2022-10-23T11:35:50.425Z,98112.00
2022-10-23T11:36:56.209Z,98111.22
2022-10-23T11:38:08.588Z,98107.00
2022-10-23T11:39:35.930Z,98109.34
2022-10-23T11:40:47.014Z,98110.94
2022-10-23T11:41:49.984Z,98104.81
2022-10-23T11:42:51.906Z,98104.44
2022-10-23T11:43:57.704Z,98101.00
2022-10-23T11:44:59.036Z,98103.31
2022-10-23T11:46:14.160Z,98100.66
2022-10-23T11:47:24.645Z,98095.63
2022-10-23T11:48:39.817Z,98102.19
2022-10-23T11:49:41.167Z,98102.63
2022-10-23T11:50:45.514Z,98106.84
2022-10-23T11:51:46.825Z,98103.78
2022-10-23T11:53:15.767Z,98102.63
2022-10-23T11:54:21.769Z,98102.63
2022-10-23T11:55:27.152Z,98105.31
2022-10-23T11:56:28.464Z,98099.19
2022-10-23T11:58:57.269Z,98093.03
2022-10-23T11:59:59.494Z,98088.84
2022-10-23T12:01:05.568Z,98089.63
2022-10-23T12:02:23.017Z,98091.56
2022-10-23T12:03:27.733Z,98093.50
2022-10-23T12:04:46.233Z,98094.34
2022-10-23T12:05:47.676Z,98088.59
2022-10-23T12:06:51.747Z,98085.13
2022-10-23T12:07:55.753Z,98087.09
2022-10-23T12:09:04.816Z,98093.66
2022-10-23T12:10:26.514Z,98089.03
2022-10-23T12:11:41.824Z,98090.97
2022-10-23T12:12:43.130Z,98089.47
2022-10-23T12:13:45.841Z,98090.22
2022-10-23T12:14:48.458Z,98086.78
2022-10-23T12:15:55.968Z,98086.00
2022-10-23T12:17:00.116Z,98080.25
2022-10-23T12:18:08.036Z,98084.88
2022-10-23T12:19:18.774Z,98086.81
2022-10-23T12:20:37.818Z,98076.03
2022-10-23T12:21:39.497Z,98071.78
2022-10-23T12:22:59.366Z,98074.13
2022-10-23T12:24:13.669Z,98066.03
2022-10-23T12:25:17.705Z,98075.31
2022-10-23T12:26:33.021Z,98073.75
2022-10-23T12:27:45.219Z,98078.41
2022-10-23T12:28:49.304Z,98077.63
2022-10-23T12:30:09.401Z,98078.41
2022-10-23T12:31:19.221Z,98071.09
2022-10-23T12:32:23.125Z,98082.66
2022-10-23T12:33:43.243Z,98081.53
2022-10-23T12:34:57.464Z,98077.69
2022-10-23T12:36:14.283Z,98075.78
2022-10-23T12:37:21.392Z,98076.53
2022-10-23T12:38:24.763Z,98068.81
2022-10-23T12:39:26.103Z,98073.06
2022-10-23T12:40:27.617Z,98064.63
2022-10-23T12:41:30.572Z,98058.84
2022-10-23T12:42:31.925Z,98065.03
2022-10-23T12:43:34.832Z,98056.53
2022-10-23T12:44:36.316Z,98055.00
2022-10-23T12:45:39.976Z,98063.13
2022-10-23T12:46:48.541Z,98057.34
2022-10-23T12:47:50.445Z,98063.13
2022-10-23T12:48:52.859Z,98064.31
2022-10-23T12:49:54.154Z,98046.56
2022-10-23T12:50:56.172Z,98049.25
2022-10-23T12:51:59.105Z,98049.28
2022-10-23T12:53:01.897Z,98046.19
2022-10-23T12:54:14.525Z,98043.50
2022-10-23T12:55:15.971Z,98046.97
2022-10-23T12:56:17.958Z,98050.06
2022-10-23T12:57:19.219Z,98053.13
2022-10-23T12:58:24.599Z,98038.88
2022-10-23T12:59:38.387Z,98035.78
2022-10-23T13:00:50.004Z,98039.25
2022-10-23T13:01:53.006Z,98031.94
2022-10-23T13:02:58.404Z,98025.41
2022-10-23T13:04:07.900Z,98034.63
2022-10-23T13:05:11.457Z,98018.84
2022-10-23T13:06:12.863Z,98026.53
2022-10-23T13:07:14.459Z,98018.44